Time;durP1;ratioP1;P1;durP2;ratioP2;P2;SDS_P1;SDS_P2;PMS_P1;PMS_P2;Temp;Humidity;BMP_temperature;BMP_pressure;BME280_temperature;BME280_humidity;BME280_pressure;Samples;Min_cycle;Max_cycle;Signal;HPM_P1;HPM_P2
2021/09/30 00:01:25;;;;;;;2.00;0.70;;;;;;;;;;5118438;27;20452;-90
2021/09/30 00:03:52;;;;;;;1.40;0.90;;;;;;;;;;5116640;28;20851;-90
2021/09/30 00:06:20;;;;;;;1.17;0.70;;;;;;;;;;5115843;28;20439;-88
2021/09/30 00:08:49;;;;;;;3.43;1.17;;;8.40;99.90;;;;;;5117310;28;20514;-89
2021/09/30 00:11:21;;;;;;;1.10;0.83;;;;;;;;;;5117436;28;20472;-90
2021/09/30 00:13:51;;;;;;;2.30;1.20;;;;;;;;;;5118505;27;20504;-90
2021/09/30 00:33:22;;;;;;;1.47;1.07;;;;;;;;;;5091963;28;20941;-90
2021/09/30 00:35:57;;;;;;;2.83;1.40;;;;;;;;;;5116757;28;20484;-89
2021/09/30 00:46:49;;;;;;;1.30;1.00;;;7.80;99.90;;;;;;5116392;28;20906;-90
2021/09/30 00:49:25;;;;;;;1.10;1.00;;;;;;;;;;5115917;28;20489;-90
2021/09/30 00:51:58;;;;;;;1.03;0.80;;;;;;;;;;5116139;28;20458;-90
2021/09/30 00:55:02;;;;;;;0.90;0.77;;;;;;;;;;5116464;28;20424;-90
2021/09/30 02:19:09;;;;;;;1.27;0.77;;;7.80;99.90;;;;;;5114254;28;20836;-89
2021/09/30 02:30:01;;;;;;;4.93;1.50;;;7.70;99.90;;;;;;5104040;28;20459;-91
2021/09/30 03:00:17;;;;;;;4.40;0.90;;;;;;;;;;5114839;28;20859;-90
2021/09/30 03:02:52;;;;;;;4.40;1.30;;;7.50;99.90;;;;;;5114745;28;20428;-90
2021/09/30 03:05:21;;;;;;;4.30;1.30;;;7.50;99.90;;;;;;5114639;28;20487;-89
2021/09/30 03:07:52;;;;;;;2.07;0.90;;;7.50;99.90;;;;;;5115028;28;20471;-88
2021/09/30 03:10:20;;;;;;;2.60;1.00;;;7.40;99.90;;;;;;5115632;28;20475;-89
2021/09/30 03:12:49;;;;;;;1.20;0.87;;;7.40;99.90;;;;;;5114184;28;20432;-90
2021/09/30 03:15:28;;;;;;;3.40;1.10;;;7.30;99.90;;;;;;5115574;28;20465;-90
2021/09/30 03:18:01;;;;;;;1.37;1.10;;;7.40;99.90;;;;;;5114141;28;20448;-90
2021/09/30 03:20:34;;;;;;;1.73;0.77;;;7.30;99.90;;;;;;5128038;28;20455;-90
2021/09/30 03:23:04;;;;;;;2.77;1.03;;;7.30;99.90;;;;;;5117689;28;20436;-90
2021/09/30 03:25:34;;;;;;;1.03;0.90;;;7.40;99.90;;;;;;5114395;28;20498;-90
2021/09/30 03:28:01;;;;;;;8.97;1.23;;;;;;;;;;5114383;28;20436;-89
2021/09/30 03:30:29;;;;;;;1.90;0.93;;;7.40;99.90;;;;;;5115358;28;20493;-89
2021/09/30 03:32:59;;;;;;;1.60;0.80;;;7.30;99.90;;;;;;5119229;27;20459;-90
2021/09/30 03:35:26;;;;;;;2.50;1.10;;;;;;;;;;5117538;28;20443;-90
2021/09/30 03:37:53;;;;;;;2.10;0.67;;;;;;;;;;5118121;28;20450;-90
2021/09/30 03:40:22;;;;;;;3.10;1.10;;;;;;;;;;5118206;28;20918;-90
2021/09/30 03:42:49;;;;;;;3.00;1.37;;;;;;;;;;5117958;28;20424;-89
2021/09/30 03:45:16;;;;;;;1.00;0.70;;;;;;;;;;5118722;28;20498;-90
2021/09/30 03:47:43;;;;;;;1.37;0.80;;;;;;;;;;5135392;28;20443;-90
2021/09/30 03:50:15;;;;;;;1.60;1.10;;;;;;;;;;5138480;28;20436;-92
2021/09/30 03:52:56;;;;;;;0.73;0.73;;;;;;;;;;5142559;28;20519;-89
2021/09/30 03:55:59;;;;;;;2.87;0.90;;;7.30;99.90;;;;;;5127018;27;20476;-88
2021/09/30 04:01:17;;;;;;;2.30;1.20;;;7.30;99.90;;;;;;5095358;28;20456;-89
2021/09/30 04:03:45;;;;;;;2.93;1.00;;;;;;;;;;5091221;28;20812;-90
2021/09/30 04:06:13;;;;;;;1.50;1.17;;;;;;;;;;5097309;28;20459;-89
2021/09/30 04:08:48;;;;;;;2.07;1.07;;;;;;;;;;5093866;28;20448;-88
2021/09/30 04:11:21;;;;;;;2.00;1.10;;;;;;;;;;5100033;28;20436;-90
2021/09/30 04:13:52;;;;;;;3.27;1.00;;;;;;;;;;5100103;28;20437;-89
2021/09/30 04:16:19;;;;;;;2.13;1.10;;;;;;;;;;5092058;28;20444;-89
2021/09/30 04:18:47;;;;;;;1.80;0.90;;;;;;;;;;5095415;28;20448;-90
2021/09/30 04:21:14;;;;;;;1.00;0.80;;;;;;;;;;5099737;28;20464;-91
2021/09/30 04:23:41;;;;;;;2.83;0.93;;;;;;;;;;5115018;28;20429;-89
2021/09/30 04:26:08;;;;;;;2.53;0.93;;;;;;;;;;5105532;28;21002;-90
2021/09/30 04:28:36;;;;;;;3.53;0.83;;;7.30;99.90;;;;;;5097352;28;20487;-90
2021/09/30 04:31:04;;;;;;;1.80;1.30;;;;;;;;;;5086968;28;20442;-90
2021/09/30 04:33:31;;;;;;;1.20;1.00;;;7.20;99.90;;;;;;5087712;28;20453;-89
2021/09/30 04:35:58;;;;;;;1.90;1.00;;;;;;;;;;5084637;28;20437;-90
2021/09/30 04:38:25;;;;;;;3.03;0.73;;;;;;;;;;5086582;28;20445;-90
2021/09/30 04:40:53;;;;;;;1.03;0.93;;;;;;;;;;5096305;28;20445;-89
2021/09/30 04:43:20;;;;;;;6.10;1.47;;;;;;;;;;5081905;28;21119;-91
2021/09/30 04:45:49;;;;;;;3.13;0.90;;;7.20;99.90;;;;;;5083709;28;20481;-90
2021/09/30 04:48:16;;;;;;;4.00;1.20;;;;;;;;;;5084610;28;20443;-90
2021/09/30 04:50:45;;;;;;;2.50;1.10;;;;;;;;;;5106600;28;20783;-90
2021/09/30 04:53:13;;;;;;;1.73;1.07;;;;;;;;;;5096405;28;20428;-90
2021/09/30 04:55:40;;;;;;;1.10;0.90;;;;;;;;;;5096204;28;20452;-90
2021/09/30 04:58:07;;;;;;;2.47;1.33;;;;;;;;;;5096412;28;20931;-91
2021/09/30 05:00:34;;;;;;;3.60;1.10;;;;;;;;;;5095799;28;20505;-90
2021/09/30 05:03:03;;;;;;;3.80;1.17;;;;;;;;;;5095963;28;20440;-90
2021/09/30 05:05:30;;;;;;;1.10;1.00;;;;;;;;;;5095538;28;21132;-90
2021/09/30 05:07:57;;;;;;;3.10;1.00;;;;;;;;;;5096223;28;20455;-92
2021/09/30 05:10:31;;;;;;;1.90;1.00;;;;;;;;;;5096174;28;20473;-91
2021/09/30 05:13:03;;;;;;;1.20;0.90;;;;;;;;;;5093651;28;20494;-90
2021/09/30 05:15:32;;;;;;;4.67;1.10;;;;;;;;;;5097821;28;20514;-90
2021/09/30 05:17:59;;;;;;;1.83;1.00;;;;;;;;;;5096874;28;20457;-91
2021/09/30 05:20:28;;;;;;;2.80;1.00;;;7.00;99.90;;;;;;5097442;28;20441;-89
2021/09/30 05:22:55;;;;;;;1.40;1.10;;;6.90;99.90;;;;;;5093783;28;20966;-90
2021/09/30 05:25:22;;;;;;;2.70;1.20;;;;;;;;;;5096190;28;20476;-90
2021/09/30 05:27:52;;;;;;;4.83;1.07;;;;;;;;;;5098396;28;20445;-89
2021/09/30 05:30:19;;;;;;;1.90;0.90;;;;;;;;;;5096576;28;20568;-89
2021/09/30 05:32:46;;;;;;;0.97;0.90;;;;;;;;;;5095936;28;20433;-88
2021/09/30 05:35:13;;;;;;;6.10;1.60;;;;;;;;;;5094874;28;20437;-89
2021/09/30 05:37:42;;;;;;;2.00;0.73;;;6.80;99.90;;;;;;5095431;28;20449;-89
2021/09/30 05:40:14;;;;;;;1.17;1.07;;;6.80;99.90;;;;;;5092713;28;20456;-89
2021/09/30 05:42:47;;;;;;;2.50;0.80;;;;;;;;;;5094971;28;20859;-90
2021/09/30 05:45:17;;;;;;;3.40;1.20;;;6.90;99.90;;;;;;5094903;28;20510;-88
2021/09/30 05:47:47;;;;;;;2.53;1.10;;;;;;;;;;5094341;28;20514;-90
2021/09/30 05:50:20;;;;;;;2.60;1.40;;;;;;;;;;5092966;28;20445;-88
2021/09/30 05:52:48;;;;;;;1.60;1.10;;;;;;;;;;5083880;28;20460;-90
2021/09/30 05:55:16;;;;;;;4.73;1.23;;;;;;;;;;5093516;28;20518;-90
2021/09/30 05:57:44;;;;;;;2.20;1.10;;;;;;;;;;5094449;28;20453;-89
2021/09/30 06:00:15;;;;;;;3.00;1.00;;;7.50;99.90;;;;;;5094809;28;20480;-91
2021/09/30 06:11:19;;;;;;;1.67;1.10;;;;;;;;;;5094243;28;20805;-93
2021/09/30 06:13:50;;;;;;;1.37;0.83;;;;;;;;;;5094321;28;20441;-92
2021/09/30 06:16:20;;;;;;;2.70;0.73;;;;;;;;;;5098045;28;20445;-90
2021/09/30 06:18:47;;;;;;;1.90;0.90;;;;;;;;;;5103409;28;20490;-93
2021/09/30 06:21:14;;;;;;;0.80;0.63;;;;;;;;;;5095573;28;20456;-91
2021/09/30 06:23:43;;;;;;;3.03;0.90;;;8.50;99.90;;;;;;5094096;28;20460;-91
2021/09/30 06:26:10;;;;;;;0.70;0.60;;;;;;;;;;5094330;28;20485;-92
2021/09/30 06:28:38;;;;;;;1.47;0.80;;;;;;;;;;5094186;28;20464;-92
2021/09/30 06:31:05;;;;;;;2.03;0.93;;;;;;;;;;5093196;28;20468;-94
2021/09/30 06:33:32;;;;;;;1.00;0.90;;;;;;;;;;5077985;28;20450;-90
2021/09/30 06:36:00;;;;;;;1.73;0.70;;;;;;;;;;5072255;28;20441;-90
2021/09/30 06:38:27;;;;;;;0.60;0.43;;;;;;;;;;5073455;28;21010;-92
2021/09/30 06:40:55;;;;;;;7.50;0.97;;;9.60;99.90;;;;;;5075261;28;20446;-92
2021/09/30 06:43:22;;;;;;;1.63;0.77;;;;;;;;;;5078033;28;20474;-91
2021/09/30 06:45:51;;;;;;;1.70;0.83;;;;;;;;;;5093199;28;20488;-89
2021/09/30 06:48:18;;;;;;;2.10;0.53;;;;;;;;;;5092317;28;20453;-90
2021/09/30 06:50:46;;;;;;;2.93;0.87;;;;;;;;;;5092855;28;20448;-90
2021/09/30 06:53:13;;;;;;;5.20;1.00;;;;;;;;;;5087008;28;20847;-89
2021/09/30 06:55:42;;;;;;;2.10;1.07;;;;;;;;;;5073704;28;20450;-89
2021/09/30 06:58:11;;;;;;;6.83;1.13;;;10.40;99.90;;;;;;5073836;28;20445;-89
2021/09/30 07:00:39;;;;;;;2.47;0.80;;;;;;;;;;5077547;28;20787;-90
2021/09/30 07:03:06;;;;;;;4.93;0.90;;;;;;;;;;5073291;28;20446;-90
2021/09/30 07:05:34;;;;;;;2.97;1.07;;;;;;;;;;5090486;28;20488;-91
2021/09/30 07:08:01;;;;;;;2.43;0.73;;;;;;;;;;5097649;28;20473;-90
2021/09/30 07:10:29;;;;;;;2.40;1.17;;;;;;;;;;5097483;28;20452;-90
2021/09/30 07:12:56;;;;;;;5.17;1.00;;;;;;;;;;5098104;28;20444;-94
2021/09/30 07:15:27;;;;;;;1.73;0.80;;;;;;;;;;5093358;27;20430;-93
2021/09/30 07:17:56;;;;;;;1.33;0.70;;;;;;;;;;5077836;28;20426;-92
2021/09/30 07:20:23;;;;;;;1.30;0.70;;;;;;;;;;5076849;28;20445;-93
2021/09/30 07:22:50;;;;;;;0.87;0.77;;;;;;;;;;5078295;28;20429;-93
2021/09/30 07:25:22;;;;;;;1.70;1.00;;;;;;;;;;5098078;28;20480;-94
2021/09/30 07:27:49;;;;;;;1.83;0.77;;;;;;;;;;5099076;28;20456;-92
2021/09/30 07:30:16;;;;;;;1.00;0.50;;;;;;;;;;5102885;27;20444;-93
2021/09/30 07:32:44;;;;;;;2.97;0.60;;;12.20;99.90;;;;;;5098381;28;20433;-93
2021/09/30 07:35:12;;;;;;;4.40;0.73;;;;;;;;;;5094493;28;20456;-94
2021/09/30 07:37:41;;;;;;;1.60;0.97;;;;;;;;;;5079485;28;20442;-92
2021/09/30 07:40:10;;;;;;;3.63;1.00;;;12.80;99.90;;;;;;5093788;28;20446;-90
2021/09/30 07:42:37;;;;;;;1.17;0.60;;;;;;;;;;5076066;28;20442;-91
2021/09/30 07:45:05;;;;;;;3.10;0.90;;;;;;;;;;5079413;28;20484;-90
2021/09/30 07:47:32;;;;;;;2.70;0.90;;;;;;;;;;5090355;28;20463;-90
2021/09/30 07:50:00;;;;;;;2.87;0.90;;;13.80;99.90;;;;;;5097702;27;20952;-88
2021/09/30 07:52:28;;;;;;;1.90;0.83;;;;;;;;;;5076499;28;20442;-92
2021/09/30 07:54:55;;;;;;;2.87;1.43;;;;;;;;;;5076831;28;20917;-91
2021/09/30 07:57:24;;;;;;;2.00;0.70;;;;;;;;;;5081196;28;20442;-89
2021/09/30 07:59:51;;;;;;;5.27;1.20;;;;;;;;;;5079926;28;20445;-89
2021/09/30 08:02:18;;;;;;;3.20;0.93;;;;;;;;;;5083377;28;20444;-90
2021/09/30 08:04:45;;;;;;;1.47;0.73;;;;;;;;;;5095732;28;20449;-89
2021/09/30 08:07:14;;;;;;;1.70;1.23;;;13.90;99.90;;;;;;5099002;28;20468;-89
2021/09/30 08:09:41;;;;;;;3.00;0.97;;;;;;;;;;5099469;27;20453;-90
2021/09/30 08:12:09;;;;;;;1.53;0.60;;;13.60;99.90;;;;;;5076077;28;20457;-89
2021/09/30 08:14:37;;;;;;;2.40;1.03;;;;;;;;;;5079227;28;20430;-92
2021/09/30 08:17:04;;;;;;;3.13;0.70;;;14.20;99.90;;;;;;5076128;28;20456;-90
2021/09/30 08:19:31;;;;;;;0.93;0.60;;;;;;;;;;5076053;28;20438;-92
2021/09/30 08:21:58;;;;;;;1.90;0.60;;;;;;;;;;5077850;28;20454;-94
2021/09/30 08:24:27;;;;;;;5.97;0.60;;;;;;;;;;5081818;28;20456;-95
2021/09/30 08:26:55;;;;;;;3.03;0.80;;;;;;;;;;5099434;28;20503;-92
2021/09/30 08:29:22;;;;;;;4.67;1.47;;;;;;;;;;5100342;27;20449;-91
2021/09/30 08:31:49;;;;;;;1.10;0.60;;;;;;;;;;5097761;28;20790;-93
2021/09/30 08:34:16;;;;;;;1.23;0.40;;;;;;;;;;5098958;27;20456;-89
2021/09/30 08:36:44;;;;;;;1.10;0.47;;;;;;;;;;5081319;28;20957;-90
2021/09/30 08:39:11;;;;;;;8.60;1.03;;;;;;;;;;5075133;28;20464;-91
2021/09/30 08:41:40;;;;;;;1.53;0.50;;;;;;;;;;5075851;28;20983;-92
2021/09/30 08:44:07;;;;;;;1.03;0.50;;;14.70;99.90;;;;;;5076929;28;20477;-90
2021/09/30 08:46:35;;;;;;;3.80;0.60;;;;;;;;;;5078808;28;20485;-92
2021/09/30 08:49:02;;;;;;;4.07;0.90;;;;;;;;;;5075647;28;20437;-92
2021/09/30 08:51:30;;;;;;;2.17;0.43;;;;;;;;;;5076138;28;20446;-91
2021/09/30 08:53:57;;;;;;;3.63;0.90;;;;;;;;;;5075933;28;20453;-91
2021/09/30 08:56:24;;;;;;;2.43;1.10;;;;;;;;;;5083384;28;20449;-91
2021/09/30 08:58:54;;;;;;;3.20;0.90;;;;;;;;;;5093897;28;20454;-91
2021/09/30 09:01:21;;;;;;;1.97;0.67;;;;;;;;;;5076655;28;20470;-93
2021/09/30 09:03:49;;;;;;;2.73;0.80;;;14.60;99.90;;;;;;5074783;28;20499;-92
2021/09/30 09:06:29;;;;;;;3.10;0.70;;;14.00;99.90;;;;;;5075625;28;20469;-92
2021/09/30 09:09:13;;;;;;;1.67;0.53;;;15.20;99.90;;;;;;5094642;28;20518;-93
2021/09/30 09:11:40;;;;;;;3.70;0.73;;;;;;;;;;5057277;28;20453;-90
2021/09/30 09:14:10;;;;;;;2.20;0.90;;;;;;;;;;5095265;28;20449;-92
2021/09/30 09:16:38;;;;;;;3.83;0.70;;;;;;;;;;5107931;28;20467;-91
2021/09/30 09:19:05;;;;;;;2.23;0.80;;;;;;;;;;5096086;28;20510;-91
2021/09/30 09:21:38;;;;;;;2.00;0.63;;;15.60;98.70;;;;;;5098188;28;20455;-90
2021/09/30 09:24:06;;;;;;;1.10;0.70;;;;;;;;;;5111833;28;20511;-88
2021/09/30 09:26:37;;;;;;;1.43;0.50;;;13.90;98.20;;;;;;5085353;28;20500;-89
2021/09/30 09:29:07;;;;;;;1.10;0.47;;;13.90;99.90;;;;;;5076492;28;20441;-89
2021/09/30 09:31:38;;;;;;;1.60;0.97;;;13.60;99.90;;;;;;5074962;28;20434;-88
2021/09/30 09:34:19;;;;;;;1.40;0.77;;;13.80;99.20;;;;;;5070438;28;20516;-89
2021/09/30 09:36:49;;;;;;;0.67;0.50;;;14.60;99.90;;;;;;5074539;28;20449;-89
2021/09/30 09:39:17;;;;;;;3.47;0.67;;;;;;;;;;5074573;28;20978;-90
2021/09/30 09:41:44;;;;;;;4.10;0.60;;;;;;;;;;5074399;28;20437;-91
2021/09/30 09:44:11;;;;;;;2.53;0.57;;;;;;;;;;5074514;28;20469;-90
2021/09/30 09:46:41;;;;;;;1.70;0.53;;;16.50;99.90;;;;;;5071575;28;20496;-92
2021/09/30 09:49:12;;;;;;;1.60;0.50;;;16.30;99.90;;;;;;5073513;28;20454;-90
2021/09/30 09:51:43;;;;;;;2.00;0.60;;;16.50;99.00;;;;;;5075733;28;20468;-92
2021/09/30 09:54:14;;;;;;;1.47;0.60;;;16.10;98.10;;;;;;5071159;28;20964;-91
2021/09/30 09:56:41;;;;;;;1.10;0.63;;;;;;;;;;5074377;28;20442;-90
2021/09/30 09:59:08;;;;;;;3.40;0.90;;;;;;;;;;5074563;28;20464;-91
2021/09/30 10:01:43;;;;;;;2.27;0.43;;;15.40;98.50;;;;;;5083441;28;20432;-92
2021/09/30 10:04:11;;;;;;;3.50;0.50;;;16.10;97.20;;;;;;5094278;28;20904;-91
2021/09/30 10:06:40;;;;;;;1.07;0.50;;;15.90;95.00;;;;;;5092859;28;20533;-89
2021/09/30 10:09:08;;;;;;;3.27;0.83;;;;;;;;;;5093950;28;20940;-90
2021/09/30 10:11:35;;;;;;;4.00;0.50;;;;;;;;;;5084409;28;20476;-92
2021/09/30 10:14:05;;;;;;;1.70;0.50;;;15.40;96.70;;;;;;5089791;28;20447;-89
2021/09/30 10:16:32;;;;;;;1.20;0.50;;;;;;;;;;5114128;28;20448;-90
2021/09/30 10:19:14;;;;;;;1.57;0.50;;;;;;;;;;5095067;28;20460;-89
2021/09/30 10:21:41;;;;;;;0.80;0.33;;;;;;;;;;5093459;28;20445;-89
2021/09/30 10:24:14;;;;;;;0.87;0.37;;;;;;;;;;5079159;28;20511;-88
2021/09/30 10:26:49;;;;;;;3.13;0.60;;;16.10;94.50;;;;;;5014844;28;20499;-90
2021/09/30 10:29:35;;;;;;;1.53;0.40;;;16.10;95.80;;;;;;5013735;28;20861;-91
2021/09/30 10:32:02;;;;;;;1.73;0.50;;;;;;;;;;5014442;28;20455;-92
2021/09/30 10:34:36;;;;;;;1.53;0.57;;;14.70;95.20;;;;;;5013471;28;20452;-92
2021/09/30 10:37:21;;;;;;;2.00;0.80;;;14.00;96.10;;;;;;5019524;28;20456;-90
2021/09/30 10:40:16;;;;;;;1.30;0.60;;;14.10;96.50;;;;;;5013114;28;20447;-92
2021/09/30 10:42:53;;;;;;;3.70;0.73;;;14.20;96.50;;;;;;5022816;28;21101;-90
2021/09/30 10:45:20;;;;;;;1.47;0.60;;;;;;;;;;5025581;28;20452;-92
2021/09/30 10:47:49;;;;;;;0.70;0.40;;;15.70;96.20;;;;;;5018486;28;20500;-90
2021/09/30 10:50:18;;;;;;;1.57;0.60;;;16.90;97.10;;;;;;5016466;28;20860;-92
2021/09/30 10:52:53;;;;;;;2.93;0.60;;;16.90;97.40;;;;;;5014085;28;20448;-91
2021/09/30 10:55:30;;;;;;;1.53;0.40;;;16.80;97.00;;;;;;5020681;28;20447;-90
2021/09/30 10:58:00;;;;;;;3.23;0.50;;;16.50;95.50;;;;;;5014635;28;20448;-92
2021/09/30 11:00:52;;;;;;;0.87;0.70;;;17.00;99.90;;;;;;5014447;28;20457;-92
2021/09/30 11:03:32;;;;;;;1.50;0.53;;;;;;;;;;5030491;28;20451;-92
2021/09/30 11:06:21;;;;;;;0.73;0.40;;;;;;;;;;5038747;28;20538;-93
2021/09/30 11:09:15;;;;;;;2.47;0.80;;;17.30;90.90;;;;;;5025972;28;20449;-90
2021/09/30 11:11:44;;;;;;;1.63;0.40;;;16.50;91.90;;;;;;5015070;28;20456;-92
2021/09/30 11:14:20;;;;;;;4.03;0.70;;;16.00;93.90;;;;;;5015117;28;20456;-91
2021/09/30 11:16:49;;;;;;;1.53;0.70;;;16.80;94.90;;;;;;5029950;28;20454;-93
2021/09/30 11:19:38;;;;;;;2.73;0.70;;;16.40;93.90;;;;;;5035218;28;20447;-91
2021/09/30 11:22:09;;;;;;;0.87;0.53;;;16.70;95.30;;;;;;5021792;28;20445;-92
2021/09/30 11:24:53;;;;;;;1.97;0.80;;;16.50;94.60;;;;;;5017259;28;20437;-93
2021/09/30 11:27:32;;;;;;;1.53;0.30;;;17.00;87.90;;;;;;5017996;28;20472;-91
2021/09/30 11:30:23;;;;;;;1.10;0.40;;;15.50;94.00;;;;;;5031264;28;20537;-93
2021/09/30 11:32:50;;;;;;;2.97;0.60;;;;;;;;;;5035798;28;20517;-91
2021/09/30 11:35:18;;;;;;;1.47;0.70;;;;;;;;;;5050517;28;20512;-93
2021/09/30 11:37:47;;;;;;;2.00;0.53;;;;;;;;;;5052177;28;20541;-93
2021/09/30 11:40:18;;;;;;;1.00;0.50;;;16.60;93.40;;;;;;5035508;28;20482;-90
2021/09/30 11:42:47;;;;;;;0.70;0.47;;;15.70;93.60;;;;;;5051111;28;20540;-92
2021/09/30 11:45:16;;;;;;;1.17;0.40;;;15.00;93.20;;;;;;5044693;28;20457;-92
2021/09/30 11:47:45;;;;;;;2.40;0.83;;;14.80;94.20;;;;;;5035535;28;21091;-93
2021/09/30 11:50:26;;;;;;;0.87;0.60;;;15.20;91.10;;;;;;5013517;28;20447;-92
2021/09/30 11:53:04;;;;;;;0.97;0.50;;;16.30;92.20;;;;;;5038076;28;20443;-93
2021/09/30 11:55:34;;;;;;;2.63;0.50;;;16.20;93.70;;;;;;5035706;28;20435;-91
2021/09/30 11:58:03;;;;;;;1.90;0.30;;;16.70;93.20;;;;;;5038226;28;20467;-91
2021/09/30 12:00:32;;;;;;;3.53;0.67;;;16.80;90.20;;;;;;5037025;28;20915;-93
2021/09/30 12:03:05;;;;;;;1.57;0.50;;;16.50;91.00;;;;;;5035687;28;20926;-92
2021/09/30 12:05:35;;;;;;;1.27;0.50;;;17.20;89.60;;;;;;5028186;28;20518;-92
2021/09/30 12:08:08;;;;;;;3.10;0.50;;;17.40;90.00;;;;;;5036711;28;21016;-92
2021/09/30 12:10:37;;;;;;;0.87;0.70;;;17.10;88.30;;;;;;5037300;28;20984;-92
2021/09/30 12:13:16;;;;;;;2.73;0.70;;;17.80;88.20;;;;;;5042330;28;20939;-93
2021/09/30 12:15:43;;;;;;;2.50;0.50;;;;;;;;;;5042388;28;20478;-90
2021/09/30 12:18:17;;;;;;;0.70;0.40;;;19.10;86.70;;;;;;5036311;28;20439;-90
2021/09/30 12:20:49;;;;;;;3.27;0.57;;;18.40;88.30;;;;;;5030055;28;20436;-92
2021/09/30 12:23:18;;;;;;;0.90;0.60;;;18.50;89.50;;;;;;5029493;28;20445;-92
2021/09/30 12:25:45;;;;;;;0.80;0.50;;;;;;;;;;5016807;28;20458;-92
2021/09/30 12:28:13;;;;;;;1.43;0.60;;;19.20;87.90;;;;;;5016788;28;20500;-93
2021/09/30 12:30:41;;;;;;;1.13;0.60;;;;;;;;;;5018746;28;20444;-92
2021/09/30 12:33:10;;;;;;;1.70;0.60;;;19.50;86.50;;;;;;5018929;28;20433;-92
2021/09/30 12:35:38;;;;;;;1.90;0.50;;;;;;;;;;5022206;28;20440;-91
2021/09/30 12:38:12;;;;;;;1.47;0.50;;;18.80;90.20;;;;;;5017251;28;20445;-92
2021/09/30 12:40:43;;;;;;;1.37;0.57;;;19.00;86.00;;;;;;5016689;28;20452;-92
2021/09/30 12:43:12;;;;;;;1.90;0.73;;;19.00;87.10;;;;;;5019010;28;20472;-92
2021/09/30 12:45:41;;;;;;;2.37;1.07;;;18.80;83.20;;;;;;5018339;28;20444;-91
2021/09/30 12:48:11;;;;;;;4.67;0.97;;;18.40;83.20;;;;;;5020611;28;20491;-91
2021/09/30 12:50:41;;;;;;;2.70;0.83;;;18.30;83.80;;;;;;5016089;28;20494;-93
2021/09/30 12:53:09;;;;;;;5.80;0.50;;;;;;;;;;5019285;28;20815;-92
2021/09/30 12:55:36;;;;;;;3.63;0.60;;;;;;;;;;5016202;28;20432;-92
2021/09/30 12:58:05;;;;;;;1.77;0.70;;;17.90;85.30;;;;;;5017270;28;20467;-93
2021/09/30 13:00:37;;;;;;;0.90;0.50;;;16.40;89.20;;;;;;5018549;28;20437;-96
2021/09/30 13:03:12;;;;;;;1.80;0.60;;;;;;;;;;5020009;28;20545;-91
2021/09/30 13:05:46;;;;;;;1.30;0.50;;;15.80;90.90;;;;;;5015732;28;20444;-88
2021/09/30 13:08:14;;;;;;;1.57;0.50;;;;;;;;;;5023317;28;20569;-90
2021/09/30 13:10:41;;;;;;;0.80;0.50;;;;;;;;;;5015472;28;20452;-90
2021/09/30 13:13:14;;;;;;;1.13;0.50;;;15.10;91.00;;;;;;5015543;28;20445;-92
2021/09/30 13:15:43;;;;;;;3.30;0.90;;;15.00;91.40;;;;;;5023593;28;20455;-90
2021/09/30 13:18:11;;;;;;;2.37;0.63;;;15.00;94.10;;;;;;5034839;28;20463;-91
2021/09/30 13:20:39;;;;;;;1.93;0.70;;;14.90;94.30;;;;;;5034180;28;20965;-90
2021/09/30 13:23:06;;;;;;;1.00;0.43;;;;;;;;;;5033767;28;20448;-89
2021/09/30 13:25:34;;;;;;;1.60;0.50;;;;;;;;;;5028110;28;20973;-93
2021/09/30 13:28:02;;;;;;;1.63;0.50;;;;;;;;;;5020688;28;20477;-94
2021/09/30 13:30:36;;;;;;;2.27;0.60;;;17.00;92.80;;;;;;5018047;28;20448;-94
2021/09/30 13:33:05;;;;;;;1.10;0.50;;;;;;;;;;5026816;28;20464;-94
2021/09/30 13:35:34;;;;;;;5.10;0.77;;;;;;;;;;5021219;28;20494;-94
2021/09/30 13:38:01;;;;;;;1.10;0.50;;;;;;;;;;5018247;28;20870;-93
2021/09/30 13:40:29;;;;;;;1.43;0.67;;;;;;;;;;5016427;28;20456;-92
2021/09/30 13:42:57;;;;;;;0.97;0.50;;;;;;;;;;5034132;28;20460;-94
2021/09/30 13:45:25;;;;;;;0.70;0.40;;;18.50;89.30;;;;;;5021530;28;20448;-88
2021/09/30 13:47:56;;;;;;;0.80;0.40;;;17.70;87.60;;;;;;5015271;28;20488;-92
2021/09/30 13:50:25;;;;;;;1.27;0.83;;;16.30;90.30;;;;;;5022971;28;20546;-91
2021/09/30 13:52:52;;;;;;;1.03;0.73;;;;;;;;;;5035578;28;20448;-92
2021/09/30 13:55:22;;;;;;;2.07;0.60;;;15.50;92.80;;;;;;5035406;28;20490;-91
2021/09/30 13:57:49;;;;;;;1.27;0.60;;;;;;;;;;5035079;28;20892;-93
2021/09/30 14:00:18;;;;;;;3.93;0.63;;;16.90;92.90;;;;;;5036144;28;20448;-91
2021/09/30 14:02:47;;;;;;;1.53;0.40;;;17.50;90.50;;;;;;5032061;28;20459;-93
2021/09/30 14:05:19;;;;;;;0.77;0.40;;;18.10;91.70;;;;;;5026294;28;20441;-92
2021/09/30 14:07:46;;;;;;;1.03;0.60;;;18.30;88.40;;;;;;5022181;28;20488;-93
2021/09/30 14:10:17;;;;;;;0.80;0.60;;;17.90;89.40;;;;;;5021172;28;20440;-93
2021/09/30 14:12:44;;;;;;;2.10;0.73;;;;;;;;;;5018095;28;20457;-94
2021/09/30 14:15:12;;;;;;;2.27;0.90;;;;;;;;;;5016440;28;20505;-91
2021/09/30 14:17:40;;;;;;;1.03;0.50;;;;;;;;;;5032932;23;20524;-93
2021/09/30 14:20:08;;;;;;;1.70;0.70;;;;;;;;;;4996005;28;20536;-91
2021/09/30 14:22:38;;;;;;;1.17;0.63;;;18.10;88.10;;;;;;4995272;28;20448;-90
2021/09/30 14:25:05;;;;;;;1.17;0.67;;;;;;;;;;4997159;28;20456;-92
2021/09/30 14:27:32;;;;;;;1.70;0.43;;;;;;;;;;4997519;28;20484;-92
2021/09/30 14:30:00;;;;;;;4.90;1.93;;;;;;;;;;4996498;28;20460;-91
2021/09/30 14:32:27;;;;;;;2.50;0.60;;;;;;;;;;4996218;28;20468;-91
2021/09/30 14:34:54;;;;;;;3.90;0.87;;;18.30;86.60;;;;;;4994783;28;20457;-92
2021/09/30 14:37:22;;;;;;;1.43;0.60;;;;;;;;;;4995688;28;20453;-91
2021/09/30 14:39:51;;;;;;;6.43;1.10;;;;;;;;;;4996264;28;20870;-90
2021/09/30 14:42:18;;;;;;;0.80;0.53;;;;;;;;;;4995731;28;20823;-92
2021/09/30 14:44:46;;;;;;;1.00;0.60;;;;;;;;;;4994309;28;20473;-93
2021/09/30 14:47:14;;;;;;;3.70;0.83;;;;;;;;;;4989614;28;20464;-94
2021/09/30 14:49:41;;;;;;;0.90;0.67;;;;;;;;;;4990953;28;20496;-93
2021/09/30 14:52:12;;;;;;;1.60;0.70;;;;;;;;;;4991814;28;20447;-92
2021/09/30 14:54:39;;;;;;;0.90;0.60;;;;;;;;;;4985232;28;20452;-90
2021/09/30 14:57:09;;;;;;;1.67;0.60;;;;;;;;;;4976544;28;20960;-91
2021/09/30 14:59:36;;;;;;;1.17;0.77;;;;;;;;;;4982046;28;20446;-89
2021/09/30 15:02:04;;;;;;;1.90;0.70;;;;;;;;;;4992294;28;20483;-92
2021/09/30 15:04:31;;;;;;;1.47;0.70;;;;;;;;;;5013110;28;20453;-90
2021/09/30 15:07:00;;;;;;;3.13;1.23;;;;;;;;;;5014303;28;20465;-89
2021/09/30 15:09:27;;;;;;;0.83;0.50;;;;;;;;;;5016238;28;20479;-89
2021/09/30 15:11:54;;;;;;;3.27;0.50;;;;;;;;;;5004122;28;20453;-89
2021/09/30 15:14:23;;;;;;;2.30;0.67;;;;;;;;;;5008094;28;20449;-89
2021/09/30 15:16:54;;;;;;;1.23;0.77;;;;;;;;;;4994541;28;20488;-90
2021/09/30 15:19:24;;;;;;;0.80;0.60;;;;;;;;;;4994890;28;20464;-92
2021/09/30 15:21:52;;;;;;;2.63;0.67;;;;;;;;;;4993654;28;20438;-90
2021/09/30 15:24:19;;;;;;;3.37;0.83;;;;;;;;;;4995006;28;20449;-91
2021/09/30 15:26:48;;;;;;;3.80;0.80;;;;;;;;;;4996330;28;20448;-92
2021/09/30 15:29:18;;;;;;;1.47;0.70;;;17.40;90.50;;;;;;4998441;28;20565;-89
2021/09/30 15:31:47;;;;;;;1.03;0.40;;;17.00;90.40;;;;;;4992982;28;20448;-89
2021/09/30 15:34:15;;;;;;;3.80;1.00;;;;;;;;;;4997591;28;20453;-90
2021/09/30 15:36:44;;;;;;;1.03;0.50;;;16.60;90.40;;;;;;5003729;28;20548;-90
2021/09/30 15:39:11;;;;;;;0.80;0.40;;;;;;;;;;5011570;28;20453;-90
2021/09/30 15:41:38;;;;;;;1.90;0.43;;;;;;;;;;5000434;28;20445;-89
2021/09/30 15:44:07;;;;;;;1.70;0.63;;;;;;;;;;4998420;28;20441;-90
2021/09/30 15:46:34;;;;;;;2.83;1.00;;;;;;;;;;4995995;28;20532;-92
2021/09/30 15:49:02;;;;;;;2.23;0.70;;;;;;;;;;4938676;29;20503;-92
2021/09/30 15:51:30;;;;;;;1.90;0.67;;;;;;;;;;4942775;29;20462;-91
2021/09/30 15:53:59;;;;;;;1.57;0.60;;;;;;;;;;4939354;29;20463;-92
2021/09/30 15:56:26;;;;;;;0.70;0.43;;;;;;;;;;4940623;29;20458;-94
2021/09/30 15:58:54;;;;;;;2.63;0.70;;;;;;;;;;4939857;29;20455;-92
2021/09/30 16:01:22;;;;;;;1.90;0.60;;;;;;;;;;4935186;29;20464;-92
2021/09/30 16:03:49;;;;;;;1.87;0.60;;;;;;;;;;4940384;29;20456;-91
2021/09/30 16:06:17;;;;;;;0.70;0.50;;;;;;;;;;4946607;28;20459;-93
2021/09/30 16:08:44;;;;;;;0.97;0.50;;;;;;;;;;4998083;28;20496;-93
2021/09/30 16:11:13;;;;;;;1.90;0.60;;;;;;;;;;4998553;28;20456;-92
2021/09/30 16:13:41;;;;;;;2.80;1.00;;;;;;;;;;4996727;28;20945;-94
2021/09/30 16:16:08;;;;;;;2.90;0.77;;;;;;;;;;4999093;28;20442;-93
2021/09/30 16:18:37;;;;;;;33.20;15.90;;;;;;;;;;4998728;28;20495;-89
2021/09/30 16:21:05;;;;;;;8.53;3.43;;;;;;;;;;4999340;28;20829;-90
2021/09/30 16:23:33;;;;;;;13.60;6.30;;;;;;;;;;4999868;28;20457;-91
2021/09/30 16:26:00;;;;;;;14.90;7.17;;;;;;;;;;4999895;28;20435;-90
2021/09/30 16:28:28;;;;;;;16.67;6.50;;;;;;;;;;4997252;28;20492;-92
2021/09/30 16:30:55;;;;;;;5.33;2.20;;;;;;;;;;5000017;28;20434;-90
2021/09/30 16:33:22;;;;;;;3.07;1.47;;;;;;;;;;4999116;28;20465;-91
2021/09/30 16:35:49;;;;;;;1.30;0.63;;;;;;;;;;4998264;28;20453;-90
2021/09/30 16:38:18;;;;;;;3.20;1.00;;;;;;;;;;4998079;28;20449;-90
2021/09/30 16:40:47;;;;;;;1.80;1.00;;;;;;;;;;5003505;28;20432;-88
2021/09/30 16:43:14;;;;;;;3.63;1.33;;;;;;;;;;5010692;28;20453;-90
2021/09/30 16:45:41;;;;;;;3.67;1.70;;;;;;;;;;4997462;28;20445;-90
2021/09/30 16:48:08;;;;;;;4.60;1.97;;;;;;;;;;4996918;28;20492;-92